Time;durP1;ratioP1;P1;durP2;ratioP2;P2;SDS_P1;SDS_P2;PMS_P1;PMS_P2;Temp;Humidity;BMP_temperature;BMP_pressure;BME280_temperature;BME280_humidity;BME280_pressure;Samples;Min_cycle;Max_cycle;Signal;HPM_P1;HPM_P2
2021/09/26 00:01:45;;;;;;;9.38;7.82;;;;;;;18.18;100.00;101606.44;6276858;22;20407;-71
2021/09/26 00:04:30;;;;;;;10.13;7.60;;;;;;;18.25;100.00;101610.63;6276837;22;20004;-71
2021/09/26 00:07:16;;;;;;;11.60;7.60;;;;;;;18.42;100.00;101609.16;6275113;22;20026;-71
2021/09/26 00:10:04;;;;;;;12.38;7.80;;;;;;;18.52;100.00;101599.06;6274347;22;20023;-71
2021/09/26 00:12:50;;;;;;;10.20;7.43;;;;;;;18.25;100.00;101608.81;6276418;22;20444;-71
2021/09/26 00:15:36;;;;;;;11.15;7.57;;;;;;;18.31;100.00;101605.09;6276920;22;20003;-71
2021/09/26 00:18:22;;;;;;;12.80;7.78;;;;;;;18.13;100.00;101603.09;6276271;22;20039;-71
2021/09/26 00:21:09;;;;;;;13.15;8.10;;;;;;;18.21;100.00;101609.00;6276974;22;20120;-71
2021/09/26 00:23:56;;;;;;;14.15;7.28;;;;;;;18.31;100.00;101600.69;6276564;22;20004;-71
2021/09/26 00:26:42;;;;;;;13.02;8.02;;;;;;;18.20;100.00;101612.56;6277098;22;20008;-71
2021/09/26 00:29:28;;;;;;;9.25;7.78;;;;;;;18.40;100.00;101608.34;6276608;22;20003;-71
2021/09/26 00:32:13;;;;;;;11.50;8.38;;;;;;;18.16;100.00;101609.16;6274782;22;20149;-71
2021/09/26 00:34:59;;;;;;;12.82;8.00;;;;;;;18.38;100.00;101609.31;6274422;22;20007;-71
2021/09/26 00:37:45;;;;;;;9.93;7.97;;;;;;;18.38;100.00;101598.69;6277269;22;20428;-71
2021/09/26 00:40:31;;;;;;;9.05;7.22;;;;;;;18.44;100.00;101611.72;6275035;22;20011;-71
2021/09/26 00:43:18;;;;;;;10.73;7.90;;;;;;;18.47;100.00;101604.56;6275276;22;20000;-71
2021/09/26 00:46:05;;;;;;;14.07;8.48;;;;;;;18.31;100.00;101598.03;6275195;22;20369;-72
2021/09/26 00:48:51;;;;;;;11.35;8.73;;;;;;;18.28;100.00;101599.88;6275255;22;20004;-71
2021/09/26 00:51:37;;;;;;;10.95;8.20;;;;;;;18.13;100.00;101603.09;6276021;22;20008;-71
2021/09/26 00:54:23;;;;;;;15.23;9.43;;;;;;;18.39;100.00;101600.44;6276396;22;20112;-71
2021/09/26 00:57:09;;;;;;;11.10;8.90;;;;;;;18.20;100.00;101599.28;6276736;22;20007;-71
2021/09/26 00:59:58;;;;;;;12.13;8.93;;;;;;;18.14;100.00;101600.41;6274841;22;20097;-72
2021/09/26 01:02:44;;;;;;;12.55;8.57;;;;;;;18.25;100.00;101597.38;6275670;22;20004;-71
2021/09/26 01:05:29;;;;;;;12.43;9.50;;;;;;;17.97;100.00;101599.22;6274409;22;20007;-72
2021/09/26 01:08:34;;;;;;;15.00;9.35;;;;;;;18.16;100.00;101595.91;6274643;22;20066;-71
2021/09/26 01:11:32;;;;;;;12.18;8.82;;;;;;;18.15;100.00;101595.94;6275099;22;20313;-71
2021/09/26 01:14:42;;;;;;;14.90;9.27;;;;;;;18.35;100.00;101593.50;6275867;22;20007;-72
2021/09/26 01:17:46;;;;;;;12.23;8.75;;;;;;;18.14;100.00;101596.88;6273971;22;20090;-71
2021/09/26 01:20:32;;;;;;;11.20;9.20;;;;;;;18.25;100.00;101592.91;6274435;22;20102;-71
2021/09/26 01:23:21;;;;;;;14.73;9.25;;;;;;;18.17;100.00;101594.97;6278058;22;20003;-71
2021/09/26 01:26:35;;;;;;;12.00;9.48;;;;;;;18.01;100.00;101588.44;6278264;22;20141;-71
2021/09/26 01:29:42;;;;;;;14.32;10.05;;;;;;;18.14;100.00;101602.16;6276551;22;20031;-71
2021/09/26 01:32:32;;;;;;;14.65;10.70;;;;;;;18.05;100.00;101606.00;6276206;22;20015;-71
2021/09/26 01:35:22;;;;;;;13.50;10.45;;;;;;;18.02;100.00;101611.44;6275271;22;20008;-71
2021/09/26 01:38:24;;;;;;;12.88;8.68;;;;;;;17.99;100.00;101608.00;6277701;22;20010;-72
2021/09/26 01:41:20;;;;;;;12.07;8.02;;;;;;;18.03;100.00;101610.50;6276205;22;20019;-71
2021/09/26 01:44:12;;;;;;;14.45;7.38;;;;;;;18.01;100.00;101617.63;6275274;22;20000;-71
2021/09/26 01:46:59;;;;;;;11.52;7.22;;;;;;;17.85;100.00;101611.09;6276036;22;20008;-72
2021/09/26 01:49:49;;;;;;;16.45;7.15;;;;;;;17.87;100.00;101619.88;6275618;22;20011;-71
2021/09/26 01:52:37;;;;;;;11.13;6.90;;;;;;;17.99;100.00;101623.91;6276875;22;20390;-70
2021/09/26 01:55:25;;;;;;;10.07;7.47;;;;;;;17.96;100.00;101614.28;6275908;22;20073;-71
2021/09/26 01:58:15;;;;;;;9.82;7.10;;;;;;;17.95;100.00;101619.63;6277395;22;20003;-71
2021/09/26 02:01:01;;;;;;;9.00;7.10;;;;;;;17.83;100.00;101612.06;6277677;22;20428;-71
2021/09/26 02:03:47;;;;;;;8.77;7.00;;;;;;;17.97;100.00;101612.50;6278445;22;20012;-71
2021/09/26 02:06:42;;;;;;;13.18;7.53;;;;;;;17.86;100.00;101617.28;6275414;22;20020;-71
2021/09/26 02:09:28;;;;;;;9.95;7.10;;;;;;;17.64;100.00;101621.56;6277935;22;20035;-71
2021/09/26 02:12:16;;;;;;;9.35;7.00;;;;;;;17.81;100.00;101619.22;6276820;22;20356;-71
2021/09/26 02:15:04;;;;;;;10.13;7.82;;;;;;;17.28;100.00;101615.56;6276707;22;20004;-71
2021/09/26 02:17:53;;;;;;;11.43;7.82;;;;;;;17.02;100.00;101606.69;6277804;22;20286;-71
2021/09/26 02:20:39;;;;;;;10.65;7.85;;;;;;;17.51;100.00;101606.94;6277781;22;20007;-71
2021/09/26 02:23:26;;;;;;;12.93;8.85;;;;;;;17.51;100.00;101602.50;6276393;22;20363;-71
2021/09/26 02:26:12;;;;;;;11.00;8.68;;;;;;;17.43;100.00;101609.84;6276358;22;20031;-71
2021/09/26 02:28:58;;;;;;;11.52;8.70;;;;;;;17.51;100.00;101612.22;6275963;22;20003;-71
2021/09/26 02:31:44;;;;;;;14.25;9.30;;;;;;;17.68;100.00;101615.25;6277751;22;20031;-71
2021/09/26 02:34:30;;;;;;;12.65;8.82;;;;;;;17.67;100.00;101617.00;6278289;22;20074;-71
2021/09/26 02:37:16;;;;;;;15.95;9.73;;;;;;;17.72;100.00;101611.56;6275846;22;20008;-72
2021/09/26 02:40:04;;;;;;;13.80;9.07;;;;;;;17.71;100.00;101617.78;6277912;22;20007;-72
2021/09/26 02:43:13;;;;;;;14.30;9.00;;;;;;;17.97;100.00;101623.09;6277197;22;20090;-71
2021/09/26 02:46:06;;;;;;;13.30;9.40;;;;;;;18.02;100.00;101623.81;6277640;22;20007;-71
2021/09/26 02:48:53;;;;;;;12.50;9.25;;;;;;;17.93;100.00;101627.63;6275771;22;20120;-71
2021/09/26 02:51:40;;;;;;;14.82;9.85;;;;;;;17.96;100.00;101631.94;6278137;22;20018;-70
2021/09/26 02:54:33;;;;;;;13.30;9.80;;;;;;;17.75;100.00;101633.53;6277134;22;20087;-71
2021/09/26 02:57:19;;;;;;;17.88;11.35;;;;;;;17.47;100.00;101642.41;6275964;22;20007;-71
2021/09/26 03:00:07;;;;;;;16.77;11.43;;;;;;;17.70;100.00;101640.78;6278001;22;20078;-71
2021/09/26 03:02:52;;;;;;;18.60;11.50;;;;;;;17.35;100.00;101637.44;6277124;22;20015;-71
2021/09/26 03:05:41;;;;;;;17.70;11.63;;;;;;;17.38;100.00;101638.22;6277297;22;20003;-71
2021/09/26 03:08:26;;;;;;;14.85;12.02;;;;;;;17.29;100.00;101638.53;6276204;22;20026;-72
2021/09/26 03:11:12;;;;;;;15.98;12.10;;;;;;;17.01;100.00;101644.66;6278176;22;20042;-71
2021/09/26 03:13:58;;;;;;;15.55;11.20;;;;;;;16.90;100.00;101644.09;6276240;22;20030;-70
2021/09/26 03:16:44;;;;;;;18.73;11.77;;;;;;;16.63;100.00;101644.91;6278108;22;20004;-71
2021/09/26 03:19:29;;;;;;;17.73;11.95;;;;;;;16.75;100.00;101649.81;6277276;22;20417;-71
2021/09/26 03:22:15;;;;;;;16.80;11.52;;;;;;;16.81;100.00;101641.72;6275733;22;20421;-71
2021/09/26 03:25:01;;;;;;;17.50;11.63;;;;;;;16.90;100.00;101647.63;6274988;22;20076;-71
2021/09/26 03:27:47;;;;;;;17.75;11.60;;;;;;;16.76;100.00;101655.06;6275952;22;20008;-71
2021/09/26 03:30:33;;;;;;;15.70;11.35;;;;;;;17.08;100.00;101639.13;6275661;22;20425;-71
2021/09/26 03:33:20;;;;;;;15.73;11.68;;;;;;;16.95;100.00;101644.81;6278330;22;20087;-71
2021/09/26 03:36:05;;;;;;;20.30;12.05;;;;;;;16.50;100.00;101648.75;6276143;22;20087;-71
2021/09/26 03:38:51;;;;;;;19.88;11.32;;;;;;;16.50;100.00;101652.28;6274988;22;20347;-70
2021/09/26 03:41:37;;;;;;;17.77;12.10;;;;;;;16.82;100.00;101652.28;6277077;22;20402;-70
2021/09/26 03:44:23;;;;;;;19.50;11.30;;;;;;;16.55;100.00;101650.38;6277422;22;20085;-71
2021/09/26 03:47:09;;;;;;;12.52;10.02;;;;;;;16.85;100.00;101651.31;6275293;22;20007;-70
2021/09/26 03:49:54;;;;;;;13.85;9.90;;;;;;;16.81;100.00;101649.66;6277164;22;20007;-71
2021/09/26 03:52:40;;;;;;;14.10;9.25;;;;;;;16.82;100.00;101651.38;6276128;22;20027;-70
2021/09/26 03:55:26;;;;;;;13.13;9.20;;;;;;;16.89;100.00;101640.59;6275016;22;20007;-71
2021/09/26 03:58:13;;;;;;;12.48;9.05;;;;;;;16.93;100.00;101650.19;6277012;22;20411;-71
2021/09/26 04:00:59;;;;;;;13.02;8.38;;;;;;;16.53;100.00;101652.22;6276774;22;20008;-71
2021/09/26 04:03:45;;;;;;;9.65;7.97;;;;;;;16.70;100.00;101657.91;6276320;22;20004;-72
2021/09/26 04:06:30;;;;;;;12.48;8.70;;;;;;;16.57;100.00;101656.50;6274827;22;20066;-72
2021/09/26 04:09:16;;;;;;;11.00;7.88;;;;;;;16.76;100.00;101660.38;6277270;22;20003;-72
2021/09/26 04:12:03;;;;;;;12.05;7.60;;;;;;;17.17;100.00;101653.91;6275928;22;20033;-71
2021/09/26 04:14:48;;;;;;;11.13;8.05;;;;;;;17.29;100.00;101659.72;6277227;22;20004;-71
2021/09/26 04:17:34;;;;;;;10.68;8.25;;;;;;;17.33;100.00;101652.53;6276281;22;20428;-71
2021/09/26 04:20:20;;;;;;;14.60;8.23;;;;;;;17.21;100.00;101650.25;6276664;22;20042;-71
2021/09/26 04:23:06;;;;;;;12.82;8.30;;;;;;;16.92;100.00;101656.38;6276278;22;20469;-70
2021/09/26 04:25:51;;;;;;;12.45;8.40;;;;;;;17.07;100.00;101652.41;6275687;22;20003;-71
2021/09/26 04:28:37;;;;;;;14.13;8.48;;;;;;;17.27;100.00;101660.66;6275720;22;20015;-72
2021/09/26 04:31:23;;;;;;;13.57;7.65;;;;;;;17.36;100.00;101658.59;6275752;22;20425;-70
2021/09/26 04:34:09;;;;;;;10.25;8.23;;;;;;;17.16;100.00;101657.47;6275611;22;20008;-72
2021/09/26 04:36:56;;;;;;;11.20;8.35;;;;;;;17.11;100.00;101660.25;6276078;22;20004;-72
2021/09/26 04:39:42;;;;;;;14.60;8.02;;;;;;;17.11;100.00;101654.06;6276729;22;20035;-71
2021/09/26 04:42:28;;;;;;;9.93;7.88;;;;;;;17.51;100.00;101668.75;6275291;22;20014;-72
2021/09/26 04:45:13;;;;;;;17.60;8.18;;;;;;;17.22;100.00;101670.50;6275480;22;20366;-72
2021/09/26 04:47:59;;;;;;;11.70;7.80;;;;;;;17.50;100.00;101680.28;6274627;22;20038;-72
2021/09/26 04:50:48;;;;;;;16.40;8.18;;;;;;;16.92;100.00;101687.31;6276688;22;20414;-72
2021/09/26 04:53:34;;;;;;;10.55;7.53;;;;;;;17.31;100.00;101684.38;6275378;22;20008;-72
2021/09/26 04:56:19;;;;;;;13.50;7.85;;;;;;;17.21;100.00;101684.69;6276565;22;20038;-70
2021/09/26 04:59:05;;;;;;;12.68;7.47;;;;;;;17.14;100.00;101688.41;6277533;22;20435;-70
2021/09/26 05:01:51;;;;;;;12.70;7.45;;;;;;;17.00;100.00;101682.66;6275749;22;20069;-71
2021/09/26 05:04:37;;;;;;;10.10;7.15;;;;;;;17.57;100.00;101681.81;6275935;22;20386;-71
2021/09/26 05:07:23;;;;;;;10.85;6.90;;;;;;;17.96;100.00;101683.22;6275744;22;20038;-71
2021/09/26 05:10:09;;;;;;;10.30;6.78;;;;;;;17.36;100.00;101682.44;6275288;22;20077;-72
2021/09/26 05:12:55;;;;;;;14.75;7.70;;;;;;;17.33;100.00;101681.66;6275598;22;20395;-72
2021/09/26 05:15:41;;;;;;;11.18;6.43;;;;;;;17.69;100.00;101677.94;6275503;22;20007;-72
2021/09/26 05:18:27;;;;;;;11.10;7.05;;;;;;;17.83;100.00;101684.53;6276106;22;20011;-72
2021/09/26 05:21:12;;;;;;;9.15;7.18;;;;;;;17.82;100.00;101690.75;6276255;22;20429;-72
2021/09/26 05:23:58;;;;;;;9.35;6.90;;;;;;;18.06;100.00;101689.97;6276468;22;20004;-71
2021/09/26 05:26:44;;;;;;;9.40;7.18;;;;;;;17.88;100.00;101690.53;6276044;22;20082;-73
2021/09/26 05:29:30;;;;;;;12.15;7.18;;;;;;;18.18;100.00;101684.25;6277554;22;20028;-72
2021/09/26 05:32:16;;;;;;;11.13;7.38;;;;;;;18.26;100.00;101694.59;6276218;22;20283;-72
2021/09/26 05:35:03;;;;;;;11.88;7.78;;;;;;;18.21;100.00;101692.09;6277856;22;20038;-72
2021/09/26 05:37:49;;;;;;;12.15;7.55;;;;;;;17.62;100.00;101690.50;6277905;22;20014;-71
2021/09/26 05:40:35;;;;;;;14.60;7.88;;;;;;;17.72;100.00;101688.44;6278124;22;20003;-71
2021/09/26 05:43:20;;;;;;;12.70;7.60;;;;;;;17.77;100.00;101699.75;6277900;22;20004;-70
2021/09/26 05:46:06;;;;;;;10.55;7.18;;;;;;;17.94;100.00;101694.78;6278595;22;20370;-71
2021/09/26 05:48:52;;;;;;;13.45;7.75;;;;;;;18.10;100.00;101699.56;6277229;22;20012;-71
2021/09/26 05:51:38;;;;;;;10.50;7.13;;;;;;;17.85;100.00;101693.28;6277242;22;20283;-72
2021/09/26 05:54:24;;;;;;;12.45;7.70;;;;;;;18.06;100.00;101699.69;6277793;22;20031;-71
2021/09/26 05:57:10;;;;;;;19.25;7.70;;;;;;;18.68;100.00;101704.66;6277099;22;20406;-71
2021/09/26 05:59:56;;;;;;;14.52;7.80;;;;;;;19.16;100.00;101702.00;6277030;22;20004;-71
2021/09/26 06:02:43;;;;;;;15.07;6.93;;;;;;;19.36;100.00;101710.13;6277165;22;20018;-71
2021/09/26 06:05:29;;;;;;;11.43;7.53;;;;;;;19.31;100.00;101709.44;6278147;22;20000;-70
2021/09/26 06:08:15;;;;;;;14.88;7.18;;;;;;;19.49;100.00;101708.75;6278190;22;20020;-71
2021/09/26 06:11:01;;;;;;;11.18;7.25;;;;;;;19.51;100.00;101714.00;6277237;22;20094;-70
2021/09/26 06:13:47;;;;;;;11.77;7.25;;;;;;;19.38;100.00;101718.94;6277676;22;20007;-71
2021/09/26 06:16:32;;;;;;;11.55;7.93;;;;;;;19.68;100.00;101720.41;6277015;22;20019;-72
2021/09/26 06:19:18;;;;;;;14.20;8.77;;;;;;;19.77;100.00;101722.69;6275277;22;20018;-71
2021/09/26 06:22:04;;;;;;;13.07;9.35;;;;;;;19.27;100.00;101729.09;6277960;22;20481;-71
2021/09/26 06:24:50;;;;;;;13.38;8.57;;;;;;;19.63;100.00;101721.50;6276034;22;20000;-71
2021/09/26 06:27:36;;;;;;;13.93;8.55;;;;;;;19.46;100.00;101727.50;6278450;22;20082;-71
2021/09/26 06:30:22;;;;;;;15.20;9.10;;;;;;;19.62;100.00;101715.34;6276751;22;20041;-71
2021/09/26 06:33:08;;;;;;;11.43;8.43;;;;;;;20.22;100.00;101720.03;6276165;22;20365;-71
2021/09/26 06:35:54;;;;;;;12.27;9.05;;;;;;;20.10;100.00;101717.88;6277377;22;20487;-72
2021/09/26 06:38:39;;;;;;;14.73;8.98;;;;;;;19.82;100.00;101718.09;6278033;22;20004;-71
2021/09/26 06:41:26;;;;;;;15.25;8.85;;;;;;;20.57;100.00;101717.63;6277096;22;20007;-71
2021/09/26 06:44:13;;;;;;;11.60;8.05;;;;;;;20.30;100.00;101725.91;6276260;22;20007;-71
2021/09/26 06:46:59;;;;;;;12.77;8.48;;;;;;;20.64;100.00;101732.41;6276709;22;20008;-71
2021/09/26 06:49:45;;;;;;;12.75;8.80;;;;;;;20.43;100.00;101724.47;6278051;22;20025;-71
2021/09/26 06:52:31;;;;;;;12.82;8.65;;;;;;;20.75;100.00;101732.81;6277990;22;20018;-71
2021/09/26 06:55:16;;;;;;;14.27;9.18;;;;;;;20.95;99.84;101724.84;6276848;22;20014;-71
2021/09/26 06:58:02;;;;;;;17.95;8.70;;;;;;;21.08;98.60;101731.38;6276447;22;20011;-71
2021/09/26 07:00:48;;;;;;;14.45;8.88;;;;;;;21.00;98.80;101722.84;6276441;22;20003;-71
2021/09/26 07:03:34;;;;;;;12.25;8.93;;;;;;;21.35;96.95;101726.59;6277438;22;20000;-70
2021/09/26 07:06:20;;;;;;;11.10;8.65;;;;;;;20.92;99.43;101724.09;6275929;22;20314;-71
2021/09/26 07:09:06;;;;;;;9.18;7.32;;;;;;;20.68;100.00;101735.78;6275805;22;20098;-71
2021/09/26 07:11:52;;;;;;;10.35;7.57;;;;;;;21.22;96.85;101720.94;6277083;22;20025;-73
2021/09/26 07:14:38;;;;;;;12.40;7.25;;;;;;;21.58;94.01;101721.91;6277360;22;20008;-72
2021/09/26 07:17:23;;;;;;;11.07;7.82;;;;;;;21.70;93.37;101726.69;6275736;22;20011;-72
2021/09/26 07:20:10;;;;;;;14.27;7.45;;;;;;;21.52;93.39;101726.66;6274049;22;20003;-72
2021/09/26 07:22:57;;;;;;;11.07;6.90;;;;;;;21.60;92.91;101721.84;6275137;22;20004;-71
2021/09/26 07:25:43;;;;;;;14.13;7.13;;;;;;;21.57;92.87;101721.97;6276955;22;20011;-71
2021/09/26 07:28:29;;;;;;;9.82;7.28;;;;;;;21.76;91.18;101723.75;6276083;22;20015;-71
2021/09/26 07:31:16;;;;;;;12.02;7.50;;;;;;;22.39;87.51;101728.59;6276761;22;20019;-71
2021/09/26 07:34:03;;;;;;;11.73;7.05;;;;;;;22.38;87.37;101736.72;6277282;22;20122;-71
2021/09/26 07:36:48;;;;;;;12.85;7.97;;;;;;;22.21;87.22;101734.88;6276630;22;20019;-71
2021/09/26 07:39:35;;;;;;;13.32;7.22;;;;;;;22.73;84.33;101739.38;6275531;22;20068;-71
2021/09/26 07:42:21;;;;;;;10.85;7.32;;;;;;;22.20;86.58;101737.63;6278227;22;20033;-71
2021/09/26 07:45:09;;;;;;;10.90;7.57;;;;;;;22.90;83.88;101736.66;6275440;22;20030;-71
2021/09/26 07:47:55;;;;;;;11.73;8.00;;;;;;;22.69;83.50;101737.78;6276722;22;20429;-72
2021/09/26 07:50:40;;;;;;;12.40;8.00;;;;;;;23.23;81.83;101734.91;6274807;22;20007;-71
2021/09/26 07:53:26;;;;;;;16.38;9.07;;;;;;;23.32;81.21;101729.06;6274840;22;20042;-71
2021/09/26 07:56:12;;;;;;;12.52;7.85;;;;;;;23.82;78.00;101730.78;6278619;22;20322;-71
2021/09/26 07:58:58;;;;;;;11.40;8.02;;;;;;;23.52;79.39;101730.69;6275948;22;20020;-71
2021/09/26 08:01:44;;;;;;;11.45;8.25;;;;;;;23.81;78.83;101731.72;6276914;22;20362;-71
2021/09/26 08:04:31;;;;;;;16.50;8.00;;;;;;;23.78;77.81;101738.13;6276479;22;20004;-71
2021/09/26 08:07:17;;;;;;;12.07;7.50;;;;;;;24.18;74.98;101742.13;6276216;22;20024;-71
2021/09/26 08:10:04;;;;;;;11.35;8.00;;;;;;;24.15;72.92;101751.19;6276670;22;20007;-71
2021/09/26 08:12:50;;;;;;;14.10;7.95;;;;;;;24.08;73.08;101751.63;6275159;22;20007;-71
2021/09/26 08:15:36;;;;;;;14.23;8.70;;;;;;;24.39;71.09;101751.59;6276880;22;20084;-71
2021/09/26 08:18:22;;;;;;;11.73;8.68;;;;;;;24.22;72.73;101746.34;6276565;22;20012;-72
2021/09/26 08:21:07;;;;;;;12.63;9.18;;;;;;;24.60;70.76;101748.53;6276562;22;20286;-71
2021/09/26 08:23:53;;;;;;;11.13;8.48;;;;;;;24.86;68.87;101749.66;6295841;22;20406;-71
2021/09/26 08:26:39;;;;;;;12.95;8.18;;;;;;;25.39;67.59;101747.31;6276500;22;20012;-71
2021/09/26 08:29:25;;;;;;;11.10;8.25;;;;;;;25.80;64.95;101746.38;6276270;22;20391;-71
2021/09/26 08:32:11;;;;;;;12.50;7.60;;;;;;;25.89;63.14;101750.31;6276971;22;20015;-71
2021/09/26 08:34:56;;;;;;;11.15;7.90;;;;;;;25.61;63.83;101744.97;6275439;22;20008;-72
2021/09/26 08:37:43;;;;;;;10.25;7.47;;;;;;;25.99;61.84;101741.56;6276827;22;20011;-71
2021/09/26 08:40:28;;;;;;;11.43;7.25;;;;;;;26.45;60.15;101726.81;6279948;22;20058;-71
2021/09/26 08:43:17;;;;;;;9.98;7.47;;;;;;;26.15;60.14;101731.56;6276058;22;20008;-70
2021/09/26 08:46:03;;;;;;;9.32;7.78;;;;;;;26.48;59.08;101733.84;6276428;22;20050;-71
2021/09/26 08:48:50;;;;;;;10.27;7.05;;;;;;;26.17;58.38;101737.72;6275007;22;20018;-71
2021/09/26 08:51:35;;;;;;;11.77;6.72;;;;;;;26.42;58.18;101728.84;6275380;22;20026;-71
2021/09/26 08:54:22;;;;;;;12.10;7.30;;;;;;;26.29;58.75;101726.09;6277043;22;20004;-71
2021/09/26 08:57:07;;;;;;;9.52;7.20;;;;;;;25.89;60.31;101720.75;6282280;22;20399;-73
2021/09/26 08:59:53;;;;;;;14.10;7.10;;;;;;;26.21;58.86;101722.22;6276009;22;20082;-72
2021/09/26 09:02:39;;;;;;;12.75;7.47;;;;;;;26.45;57.51;101720.59;6278790;22;20007;-72
2021/09/26 09:05:33;;;;;;;10.57;7.05;;;;;;;26.68;58.07;101719.94;6278627;22;19999;-73
2021/09/26 09:08:21;;;;;;;9.68;6.93;;;;;;;26.39;57.54;101721.00;6277515;22;20102;-72
2021/09/26 09:11:08;;;;;;;10.90;6.78;;;;;;;26.84;56.54;101721.44;6278545;22;20310;-72
2021/09/26 09:13:59;;;;;;;10.93;6.95;;;;;;;26.32;57.85;101711.63;6276347;22;20091;-72
2021/09/26 09:16:53;;;;;;;11.88;6.78;;;;;;;26.66;57.42;101721.84;6278150;22;20003;-72
2021/09/26 09:19:39;;;;;;;12.23;6.93;;;;;;;26.61;58.41;101710.56;6278259;22;20007;-72
2021/09/26 09:22:29;;;;;;;10.57;6.78;;;;;;;26.79;56.53;101714.66;6275737;22;20008;-72
2021/09/26 09:25:47;;;;;;;14.68;6.68;;;;;;;26.47;56.49;101718.66;6276698;22;19999;-72
2021/09/26 09:28:39;;;;;;;13.68;6.75;;;;;;;26.50;56.88;101716.63;6256990;22;20008;-72
2021/09/26 09:31:25;;;;;;;15.70;6.63;;;;;;;26.73;56.24;101718.63;6278203;22;20360;-72
2021/09/26 09:34:29;;;;;;;11.13;6.80;;;;;;;27.16;55.14;101716.50;6279593;22;20394;-71
2021/09/26 09:37:22;;;;;;;12.40;6.43;;;;;;;27.17;54.88;101715.56;6280554;22;20042;-72
2021/09/26 09:40:15;;;;;;;10.55;6.85;;;;;;;26.33;56.56;101711.50;6278043;22;20003;-71
2021/09/26 09:43:02;;;;;;;11.75;6.95;;;;;;;26.30;57.86;101716.25;6277749;22;20008;-71
2021/09/26 09:45:59;;;;;;;11.05;6.72;;;;;;;26.52;57.04;101711.16;6276222;22;20055;-73
2021/09/26 09:48:45;;;;;;;10.40;7.05;;;;;;;26.88;57.16;101708.66;6277804;22;20015;-71
2021/09/26 09:51:33;;;;;;;13.10;7.07;;;;;;;26.25;56.88;101708.50;6277109;22;20079;-71
2021/09/26 09:54:36;;;;;;;13.68;7.25;;;;;;;25.82;59.21;101706.88;6278036;22;20007;-72
2021/09/26 09:57:23;;;;;;;13.48;6.68;;;;;;;26.20;58.43;101707.91;6277804;22;20061;-72
2021/09/26 10:00:22;;;;;;;9.32;6.57;;;;;;;27.04;55.77;101706.59;6277153;22;20003;-72
2021/09/26 10:03:39;;;;;;;9.95;6.10;;;;;;;27.48;54.91;101692.72;6278543;22;20461;-72
2021/09/26 10:06:28;;;;;;;13.90;6.72;;;;;;;27.18;55.32;101704.69;6276250;22;20015;-72
2021/09/26 10:09:21;;;;;;;9.35;6.25;;;;;;;27.08;55.97;101700.03;6278266;22;20041;-72
2021/09/26 10:12:09;;;;;;;7.90;5.85;;;;;;;26.98;55.24;101698.97;6276393;22;20014;-72
2021/09/26 10:15:00;;;;;;;8.10;5.53;;;;;;;27.40;54.18;101688.75;6277676;22;20004;-73
2021/09/26 10:17:46;;;;;;;6.50;5.45;;;;;;;27.28;54.57;101680.69;6276811;22;20004;-71
2021/09/26 10:20:33;;;;;;;8.15;5.88;;;;;;;27.44;53.06;101674.09;6275844;22;20007;-71
2021/09/26 10:23:21;;;;;;;9.55;5.65;;;;;;;27.25;53.58;101676.38;6275965;22;20016;-72
2021/09/26 10:26:07;;;;;;;7.40;5.10;;;;;;;27.45;52.72;101674.97;6276433;22;20015;-72
2021/09/26 10:28:58;;;;;;;6.85;5.10;;;;;;;27.72;51.71;101670.25;6276857;22;20014;-72
2021/09/26 10:31:46;;;;;;;4.97;4.47;;;;;;;27.65;52.45;101670.81;6276845;22;20003;-72
2021/09/26 10:34:32;;;;;;;4.95;4.10;;;;;;;27.02;52.23;101663.69;6278135;22;20015;-72
2021/09/26 10:37:22;;;;;;;4.13;3.72;;;;;;;27.70;51.49;101660.56;6275495;22;20390;-72
2021/09/26 10:40:09;;;;;;;5.60;4.38;;;;;;;28.44;49.81;101655.84;6277422;22;20137;-72
2021/09/26 10:42:55;;;;;;;7.63;4.63;;;;;;;28.56;50.05;101661.13;6276252;22;20011;-72
2021/09/26 10:45:41;;;;;;;7.28;4.55;;;;;;;28.53;48.94;101663.22;6277359;22;20038;-72
2021/09/26 10:48:55;;;;;;;9.63;4.18;;;;;;;28.49;46.94;101664.44;6276431;22;20082;-71
2021/09/26 10:51:47;;;;;;;5.38;3.75;;;;;;;28.35;47.42;101654.69;6276610;22;20003;-72
2021/09/26 10:54:37;;;;;;;4.88;3.72;;;;;;;28.55;47.32;101645.94;6275715;22;20003;-72
2021/09/26 10:57:25;;;;;;;4.70;3.90;;;;;;;28.78;46.52;101642.31;6277707;22;20069;-72
2021/09/26 11:00:16;;;;;;;5.97;3.83;;;;;;;29.42;44.52;101640.75;6275220;22;20038;-72
2021/09/26 11:03:17;;;;;;;4.65;3.53;;;;;;;29.63;43.78;101630.94;6275917;22;20007;-71
2021/09/26 11:06:25;;;;;;;5.38;3.30;;;;;;;29.00;43.26;101626.16;6276784;22;20098;-72
2021/09/26 11:09:11;;;;;;;6.68;3.75;;;;;;;29.60;43.40;101621.22;6275438;22;20058;-71
2021/09/26 11:11:57;;;;;;;4.22;3.67;;;;;;;29.45;43.43;101617.03;6275977;22;20014;-72
2021/09/26 11:15:05;;;;;;;5.00;3.88;;;;;;;29.34;42.55;101618.91;6276774;22;20015;-71
2021/09/26 11:17:54;;;;;;;5.63;3.83;;;;;;;29.65;42.41;101616.31;6276994;22;20209;-71
2021/09/26 11:20:42;;;;;;;6.78;4.30;;;;;;;29.54;42.48;101610.03;6276974;22;20019;-71
2021/09/26 11:23:36;;;;;;;7.45;4.90;;;;;;;30.21;42.09;101612.44;6276669;22;20012;-71
2021/09/26 11:26:21;;;;;;;7.30;4.93;;;;;;;29.74;41.72;101612.00;6276473;22;20088;-72
2021/09/26 11:29:07;;;;;;;7.95;5.05;;;;;;;29.92;41.99;101600.50;6275402;22;20007;-72
2021/09/26 11:31:54;;;;;;;8.30;4.85;;;;;;;29.80;41.38;101597.94;6277068;22;20011;-72
2021/09/26 11:34:41;;;;;;;8.00;4.55;;;;;;;29.87;41.10;101596.47;6277239;22;20398;-72
2021/09/26 11:37:37;;;;;;;16.33;12.40;;;;;;;30.12;41.56;101590.69;6274646;22;20390;-72
2021/09/26 11:40:45;;;;;;;6.88;5.18;;;;;;;30.44;40.61;101592.41;6277909;22;20057;-71
2021/09/26 11:43:34;;;;;;;8.20;5.30;;;;;;;30.73;40.32;101587.16;6275677;22;19999;-71
2021/09/26 11:46:24;;;;;;;7.13;5.53;;;;;;;30.96;39.79;101586.88;6277007;22;20015;-72
2021/09/26 11:49:10;;;;;;;8.35;5.25;;;;;;;30.71;41.26;101583.75;6275489;22;20004;-72
2021/09/26 11:51:58;;;;;;;9.35;7.05;;;;;;;30.72;40.58;101577.34;6277232;22;20042;-72
2021/09/26 11:54:44;;;;;;;29.63;25.38;;;;;;;29.79;42.14;101580.91;6276474;22;20003;-71
2021/09/26 11:57:30;;;;;;;9.20;7.97;;;;;;;30.57;41.67;101573.22;6274694;22;20007;-71
2021/09/26 12:00:28;;;;;;;9.18;5.88;;;;;;;30.99;40.59;101577.63;6276592;22;20422;-71
2021/09/26 12:03:33;;;;;;;9.40;5.78;;;;;;;30.83;40.64;101571.84;6277270;22;20436;-72
2021/09/26 12:06:18;;;;;;;11.00;5.97;;;;;;;31.00;39.72;101574.78;6275125;22;20422;-72
2021/09/26 12:09:05;;;;;;;7.05;5.70;;;;;;;30.64;40.02;101564.47;6276881;22;20314;-71
2021/09/26 12:11:51;;;;;;;10.98;6.20;;;;;;;30.35;40.27;101554.47;6276694;22;20065;-71
2021/09/26 12:14:38;;;;;;;10.85;5.97;;;;;;;30.20;40.14;101551.25;6274812;22;20004;-72
2021/09/26 12:17:27;;;;;;;10.15;6.40;;;;;;;30.44;40.64;101549.13;6275069;22;20357;-72
2021/09/26 12:20:14;;;;;;;11.95;7.40;;;;;;;30.18;40.59;101539.69;6276096;22;20004;-72
2021/09/26 12:23:01;;;;;;;12.00;7.40;;;;;;;30.08;40.68;101540.56;6275728;22;20079;-72
2021/09/26 12:25:58;;;;;;;11.25;6.53;;;;;;;30.13;40.54;101538.31;6276655;22;20310;-71
2021/09/26 12:28:43;;;;;;;8.80;5.88;;;;;;;30.23;40.13;101534.75;6277607;22;20011;-71
2021/09/26 12:31:31;;;;;;;8.43;6.75;;;;;;;30.05;40.11;101528.19;6275007;22;20042;-73
2021/09/26 12:34:26;;;;;;;12.02;6.35;;;;;;;29.94;40.58;101533.63;6276450;22;20372;-72
2021/09/26 12:37:25;;;;;;;9.38;6.40;;;;;;;30.29;40.27;101527.94;6275947;22;20008;-73
2021/09/26 12:40:18;;;;;;;10.00;6.47;;;;;;;30.26;40.07;101526.34;6276835;22;20050;-71
2021/09/26 12:43:05;;;;;;;11.80;6.40;;;;;;;30.26;40.09;101522.81;6277094;22;20007;-72
2021/09/26 12:45:51;;;;;;;13.70;6.65;;;;;;;30.08;40.82;101511.72;6276830;22;20003;-73
2021/09/26 12:48:38;;;;;;;9.52;7.22;;;;;;;29.82;40.64;101515.75;6275066;22;20083;-73
2021/09/26 12:51:26;;;;;;;9.63;6.43;;;;;;;30.04;41.24;101518.38;6275637;22;20015;-72